Time;durP1;ratioP1;P1;durP2;ratioP2;P2;SDS_P1;SDS_P2;PMS_P1;PMS_P2;Temp;Humidity;BMP_temperature;BMP_pressure;BME280_temperature;BME280_humidity;BME280_pressure;Samples;Min_cycle;Max_cycle;Signal;HPM_P1;HPM_P2
2023/10/06 00:01:12;;;;;;;9.70;3.92;;;;;;;-145.68;83.55;74535.31;10451416;28;20351;-69
2023/10/06 00:06:21;;;;;;;4.63;3.13;;;;;;;-145.68;84.34;74529.31;10455074;28;20618;-69
2023/10/06 00:11:28;;;;;;;12.45;3.65;;;;;;;-145.68;84.47;74535.31;10454289;28;20184;-69
2023/10/06 00:16:38;;;;;;;10.15;3.78;;;;;;;-145.68;84.73;74543.31;10449215;28;20192;-69
2023/10/06 00:21:47;;;;;;;11.38;4.15;;;;;;;-145.68;83.75;74521.31;10454474;28;20219;-69
2023/10/06 00:26:49;;;;;;;9.82;3.83;;;;;;;-145.68;83.59;74515.31;10454243;28;20713;-69
2023/10/06 00:31:49;;;;;;;12.40;3.55;;;;;;;-145.68;84.07;74527.31;10454308;28;20235;-69
2023/10/06 00:36:51;;;;;;;7.38;3.22;;;;;;;-145.68;83.43;74513.31;10453945;28;20250;-69
2023/10/06 00:41:56;;;;;;;13.45;3.65;;;;;;;-145.68;84.26;74527.31;10452159;28;20212;-69
2023/10/06 00:47:05;;;;;;;9.93;3.30;;;;;;;-145.68;84.64;74519.31;10453809;28;20466;-69
2023/10/06 00:52:07;;;;;;;11.18;3.72;;;;;;;-145.68;84.41;74533.31;10453511;28;20183;-68
2023/10/06 00:57:10;;;;;;;10.02;3.75;;;;;;;-145.68;84.92;74521.31;10453406;28;20211;-69
2023/10/06 01:02:11;;;;;;;15.82;3.60;;;;;;;-145.68;84.45;74523.31;10451414;28;20295;-69
2023/10/06 01:07:18;;;;;;;7.57;3.25;;;;;;;-145.68;85.06;74533.31;10451737;28;20224;-68
2023/10/06 01:12:19;;;;;;;8.75;3.55;;;;;;;-145.68;84.68;74529.31;10450605;28;20187;-69
2023/10/06 01:17:20;;;;;;;7.38;3.75;;;;;;;-145.68;84.29;74521.31;10452605;28;20207;-68
2023/10/06 01:22:25;;;;;;;14.70;3.60;;;;;;;-145.68;83.91;74523.31;10452026;28;20223;-69
2023/10/06 01:27:28;;;;;;;9.25;3.30;;;;;;;-145.68;84.17;74521.31;10451876;28;20650;-68
2023/10/06 01:32:28;;;;;;;7.82;3.22;;;;;;;-145.68;84.53;74543.31;10446288;28;20729;-69
2023/10/06 01:37:31;;;;;;;7.30;3.30;;;;;;;-145.68;84.61;74519.31;10451573;28;20215;-68
2023/10/06 01:42:31;;;;;;;10.40;3.63;;;;;;;-145.68;84.39;74529.31;10451214;28;20230;-68
2023/10/06 01:47:32;;;;;;;13.15;4.07;;;;;;;-145.68;84.47;74523.31;10450908;28;20212;-68
2023/10/06 01:52:32;;;;;;;7.72;3.17;;;;;;;-145.68;84.79;74523.31;10449566;28;20184;-69
2023/10/06 01:57:32;;;;;;;9.07;3.42;;;;;;;-145.68;84.05;74511.31;10450772;28;20211;-69
2023/10/06 02:02:33;;;;;;;13.23;3.42;;;;;;;-145.68;84.86;74529.31;10449354;28;20216;-69
2023/10/06 02:07:35;;;;;;;11.77;3.67;;;;;;;-145.68;84.65;74505.31;10450662;28;20288;-68
2023/10/06 02:12:37;;;;;;;6.57;3.17;;;;;;;-145.68;84.94;74511.31;10449137;28;20184;-68
2023/10/06 02:17:38;;;;;;;10.00;3.15;;;;;;;-145.68;84.90;74511.31;10450139;28;20216;-68
2023/10/06 02:22:39;;;;;;;8.73;3.50;;;;;;;-145.68;84.82;74513.31;10449726;28;20386;-69
2023/10/06 02:27:50;;;;;;;8.18;3.72;;;;;;;-145.68;85.23;74507.31;10449602;28;20319;-68
2023/10/06 02:32:51;;;;;;;12.75;3.45;;;;;;;-145.68;85.80;74509.31;10448342;28;20212;-69
2023/10/06 02:37:51;;;;;;;5.38;3.78;;;;;;;-145.68;86.53;74531.31;10448612;28;20215;-69
2023/10/06 02:42:52;;;;;;;10.55;4.03;;;;;;;-145.68;86.26;74511.31;10447844;28;20591;-68
2023/10/06 02:47:57;;;;;;;6.47;3.13;;;;;;;-145.68;86.81;74527.31;10448825;28;20266;-68
2023/10/06 02:52:59;;;;;;;8.77;3.38;;;;;;;-145.68;87.34;74533.31;10442182;28;20214;-68
2023/10/06 02:58:00;;;;;;;10.68;3.83;;;;;;;-145.68;86.68;74509.31;10448563;28;20306;-68
2023/10/06 03:03:06;;;;;;;12.05;4.45;;;;;;;-145.68;87.95;74519.31;10448313;28;20218;-69
2023/10/06 03:08:09;;;;;;;9.80;3.05;;;;;;;-145.68;87.17;74505.31;10446908;28;20280;-69
2023/10/06 03:13:14;;;;;;;10.10;3.60;;;;;;;-145.68;89.07;74537.31;10447012;28;20203;-68
2023/10/06 03:18:17;;;;;;;9.00;3.50;;;;;;;-145.68;89.25;74563.28;10444846;28;20253;-68
2023/10/06 03:23:26;;;;;;;9.85;3.63;;;;;;;-145.68;90.11;74545.31;10437663;28;20221;-69
2023/10/06 03:28:36;;;;;;;8.50;3.70;;;;;;;-145.68;90.49;74551.28;10430314;28;20232;-69
2023/10/06 03:33:38;;;;;;;10.35;3.60;;;;;;;-145.68;91.17;74563.28;10429975;28;20513;-69
2023/10/06 03:38:43;;;;;;;14.27;4.57;;;;;;;-145.68;90.73;74561.28;10430492;28;20281;-69
2023/10/06 03:43:50;;;;;;;9.15;4.07;;;;;;;-145.68;92.36;74581.28;10431434;28;20220;-69
2023/10/06 03:48:52;;;;;;;12.93;4.22;;;;;;;-145.68;92.58;74561.28;10425996;28;20219;-69
2023/10/06 03:53:52;;;;;;;9.02;3.95;;;;;;;-145.68;91.95;74561.28;10430109;28;20646;-68
2023/10/06 03:58:54;;;;;;;7.13;3.63;;;;;;;-145.68;91.43;74567.28;10433059;28;20215;-69
2023/10/06 04:03:54;;;;;;;11.18;4.38;;;;;;;-145.68;92.42;74575.28;10429968;28;20220;-68
2023/10/06 04:08:57;;;;;;;12.82;3.80;;;;;;;-145.68;93.45;74573.28;10424295;28;20219;-69
2023/10/06 04:13:58;;;;;;;15.57;4.65;;;;;;;-145.68;92.48;74577.28;10430843;28;20310;-68
2023/10/06 04:18:59;;;;;;;9.98;3.80;;;;;;;-145.68;93.52;74585.28;10430455;28;20261;-69
2023/10/06 04:24:00;;;;;;;10.95;3.65;;;;;;;-145.68;94.67;74597.28;10434128;28;20661;-68
2023/10/06 04:29:01;;;;;;;11.27;3.70;;;;;;;-145.68;94.42;74589.28;10431499;28;20243;-68
2023/10/06 04:34:01;;;;;;;8.48;3.53;;;;;;;-145.68;93.80;74591.28;10428574;28;20200;-69
2023/10/06 04:39:01;;;;;;;10.52;3.78;;;;;;;-145.68;95.20;74601.28;10427022;28;20215;-69
2023/10/06 04:44:02;;;;;;;11.80;4.20;;;;;;;-145.68;95.96;74607.28;10429963;28;20216;-69
2023/10/06 04:49:03;;;;;;;10.38;4.43;;;;;;;-145.68;96.88;74631.28;10438028;28;20337;-68
2023/10/06 04:54:07;;;;;;;12.82;3.88;;;;;;;-145.68;98.50;74645.28;10441267;28;20196;-69
2023/10/06 04:59:11;;;;;;;13.45;4.35;;;;;;;-145.68;100.00;74661.25;10440612;28;20219;-69
2023/10/06 05:04:11;;;;;;;11.40;3.83;;;;;;;-145.68;100.00;74653.25;10436679;28;20221;-69
2023/10/06 05:09:13;;;;;;;16.30;3.92;;;;;;;-145.68;100.00;74695.25;10437104;28;20583;-69
2023/10/06 05:14:13;;;;;;;13.20;4.07;;;;;;;-145.68;100.00;74703.25;10440371;28;20566;-69
2023/10/06 05:19:14;;;;;;;9.97;3.77;;;;;;;-145.68;100.00;74705.25;10436973;28;20216;-68
2023/10/06 05:24:16;;;;;;;10.77;3.47;;;;;;;-145.68;100.00;74695.25;10439782;28;20763;-68
2023/10/06 05:29:17;;;;;;;8.63;3.97;;;;;;;-145.68;100.00;74687.25;10434194;28;20324;-69
2023/10/06 05:34:17;;;;;;;12.83;4.10;;;;;;;-145.68;100.00;74711.25;10436087;28;20208;-69
2023/10/06 05:39:18;;;;;;;8.87;4.40;;;;;;;-145.68;100.00;74717.25;10439314;28;20216;-69
2023/10/06 05:44:18;;;;;;;11.27;4.30;;;;;;;-145.68;100.00;74739.25;10439123;28;20228;-69
2023/10/06 05:49:21;;;;;;;9.80;4.47;;;;;;;-145.68;100.00;74733.25;10438775;28;20757;-69
2023/10/06 05:54:21;;;;;;;9.13;4.50;;;;;;;-145.68;100.00;74733.25;10436535;28;20196;-68
2023/10/06 05:59:22;;;;;;;10.63;4.23;;;;;;;-145.68;100.00;74735.25;10437217;28;20713;-69
2023/10/06 06:04:27;;;;;;;13.47;4.90;;;;;;;-145.68;100.00;74751.22;10438406;28;20358;-69
2023/10/06 06:09:28;;;;;;;15.30;4.40;;;;;;;-145.68;100.00;74757.22;10438048;28;20208;-69
2023/10/06 06:14:28;;;;;;;10.20;4.40;;;;;;;-145.68;100.00;74751.22;10438016;28;20185;-69
2023/10/06 06:19:28;;;;;;;10.07;4.97;;;;;;;-145.68;100.00;74727.25;10437787;28;20749;-69
2023/10/06 06:24:29;;;;;;;12.13;4.68;;;;;;;-145.68;100.00;74645.28;10433466;28;20706;-70
2023/10/06 06:29:29;;;;;;;12.67;4.57;;;;;;;-145.68;100.00;74577.28;10437200;28;20706;-68
2023/10/06 06:34:30;;;;;;;12.38;4.20;;;;;;;-145.68;96.97;74487.31;10437686;28;20600;-68
2023/10/06 06:39:34;;;;;;;5.95;3.53;;;;;;;-145.68;89.33;74421.34;10427174;28;20274;-68
2023/10/06 06:44:36;;;;;;;7.43;2.95;;;;;;;-145.68;83.12;74371.38;10427772;28;20219;-68
2023/10/06 06:49:37;;;;;;;9.52;3.50;;;;;;;-145.68;79.37;74359.38;10418434;28;20229;-69
2023/10/06 06:54:39;;;;;;;9.60;3.60;;;;;;;-145.68;77.80;74307.38;10436323;28;20199;-69
2023/10/06 06:59:39;;;;;;;7.47;3.28;;;;;;;-145.68;78.31;74375.38;10424916;28;20212;-69
2023/10/06 07:04:39;;;;;;;9.30;2.92;;;;;;;-145.68;75.25;74243.41;10435360;28;20220;-68
2023/10/06 07:09:40;;;;;;;10.65;3.38;;;;;;;-145.68;71.49;74195.44;10433816;28;20210;-67
2023/10/06 07:14:40;;;;;;;8.65;3.15;;;;;;;-145.68;70.40;74191.44;10413089;28;20250;-68
2023/10/06 07:19:40;;;;;;;6.43;3.53;;;;;;;-145.68;69.92;74153.47;10416651;28;20734;-69
2023/10/06 07:24:41;;;;;;;9.65;3.33;;;;;;;-145.68;71.14;74183.44;10423817;28;20743;-69
2023/10/06 07:29:41;;;;;;;9.07;3.20;;;;;;;-145.68;69.06;74101.47;10419780;28;20742;-68
2023/10/06 07:34:41;;;;;;;11.55;4.40;;;;;;;-145.68;68.47;74163.44;10432121;28;20287;-69
2023/10/06 07:39:42;;;;;;;9.05;3.88;;;;;;;-145.68;68.65;74133.47;10434514;28;20558;-67
2023/10/06 07:44:43;;;;;;;10.77;3.95;;;;;;;-145.68;67.61;74101.47;10428157;28;20788;-68
2023/10/06 07:49:43;;;;;;;7.50;3.90;;;;;;;-145.68;66.72;74075.50;10414475;28;20529;-69
2023/10/06 07:54:44;;;;;;;10.48;3.72;;;;;;;-145.68;64.41;74117.47;10422642;28;20628;-68
2023/10/06 07:59:44;;;;;;;6.63;3.53;;;;;;;-145.68;63.26;74071.50;10432603;28;20294;-69
2023/10/06 08:04:45;;;;;;;6.88;3.20;;;;;;;-145.68;64.07;74117.47;10433082;28;20219;-69
2023/10/06 08:09:46;;;;;;;12.50;4.13;;;;;;;-145.68;63.63;74157.44;10425152;28;20208;-69
2023/10/06 08:14:46;;;;;;;7.57;2.70;;;;;;;-145.68;59.34;73961.53;10429914;28;20691;-68
2023/10/06 08:19:47;;;;;;;3.10;2.10;;;;;;;-145.68;60.20;74115.47;10433691;28;20220;-69
2023/10/06 08:24:47;;;;;;;9.60;2.95;;;;;;;-145.68;57.78;74083.47;10441072;28;20225;-68
2023/10/06 08:29:48;;;;;;;4.15;2.55;;;;;;;-145.68;55.98;74011.53;10441866;28;20232;-68
2023/10/06 08:34:49;;;;;;;8.38;2.60;;;;;;;-145.68;57.40;74029.50;10441364;28;20188;-68
2023/10/06 08:39:50;;;;;;;7.15;2.08;;;;;;;-145.68;55.41;73925.56;10429911;28;20217;-68
2023/10/06 08:44:50;;;;;;;5.55;2.28;;;;;;;-145.68;55.02;73975.53;10429762;28;20709;-69
2023/10/06 08:49:51;;;;;;;6.15;2.00;;;;;;;-145.68;55.06;73969.53;10437194;28;20697;-68
2023/10/06 08:54:52;;;;;;;4.80;2.40;;;;;;;-145.68;53.67;73909.56;10439339;28;20617;-68
2023/10/06 08:59:52;;;;;;;6.43;2.72;;;;;;;-145.68;52.99;73867.59;10437100;28;20221;-67
2023/10/06 09:04:54;;;;;;;6.88;2.45;;;;;;;-145.68;48.47;73527.78;10439230;28;20223;-68
2023/10/06 09:09:54;;;;;;;6.43;2.20;;;;;;;-145.68;48.68;73713.66;10438771;28;20219;-68
2023/10/06 09:14:55;;;;;;;4.15;2.13;;;;;;;-145.68;49.88;73931.56;10438876;28;20618;-68
2023/10/06 09:19:56;;;;;;;3.63;1.70;;;;;;;-145.68;52.24;73889.56;10435147;28;20693;-67
2023/10/06 09:24:59;;;;;;;4.03;2.30;;;;;;;-145.68;51.25;73837.59;10437853;28;20219;-68
2023/10/06 09:30:01;;;;;;;4.28;1.92;;;;;;;-145.68;51.46;73803.63;10437957;28;20262;-68
2023/10/06 09:35:22;;;;;;;3.40;2.08;;;;;;;-145.68;50.78;73677.69;10436902;28;20192;-68
2023/10/06 09:40:22;;;;;;;5.45;2.30;;;;;;;-145.68;49.64;73681.69;10435486;28;20203;-69
2023/10/06 09:45:24;;;;;;;4.50;2.10;;;;;;;-145.68;48.90;73687.69;10438641;28;20215;-68
2023/10/06 09:50:26;;;;;;;4.20;2.03;;;;;;;-145.68;48.40;73651.72;10438423;28;20212;-69
2023/10/06 09:55:27;;;;;;;4.72;2.08;;;;;;;-145.68;49.70;73645.72;10437341;28;20200;-68
2023/10/06 10:00:30;;;;;;;5.25;2.40;;;;;;;-145.68;48.81;73605.72;10441000;28;20221;-68
2023/10/06 10:05:31;;;;;;;5.28;2.78;;;;;;;-145.68;52.24;73905.56;10437326;28;20212;-68
2023/10/06 10:10:33;;;;;;;5.13;2.33;;;;;;;-145.68;51.82;73791.63;10438813;28;20231;-67
2023/10/06 10:15:42;;;;;;;3.50;2.40;;;;;;;-145.68;51.56;73749.66;10419174;28;20228;-67
2023/10/06 10:20:46;;;;;;;4.63;2.38;;;;;;;-145.68;48.47;73599.72;10432322;28;20216;-68
2023/10/06 10:25:46;;;;;;;7.53;2.38;;;;;;;-145.68;46.88;73473.81;10432263;28;20195;-69
2023/10/06 10:30:56;;;;;;;3.95;2.00;;;;;;;-145.68;48.08;73729.66;10436577;28;20235;-69
2023/10/06 10:36:15;;;;;;;7.63;2.58;;;;;;;-145.68;50.41;73685.69;10430719;28;20282;-68
2023/10/06 10:41:16;;;;;;;6.07;2.55;;;;;;;-145.68;49.17;73637.72;10436620;28;20303;-69
2023/10/06 10:46:48;;;;;;;6.15;2.50;;;;;;;-145.68;48.47;73649.72;10420971;28;20211;-69
2023/10/06 10:51:51;;;;;;;6.55;2.40;;;;;;;-145.68;48.06;73599.72;10433051;28;20709;-69
2023/10/06 10:56:53;;;;;;;5.82;2.67;;;;;;;-145.68;46.25;73417.84;10432090;28;20634;-68
2023/10/06 11:01:53;;;;;;;4.57;2.47;;;;;;;-145.68;46.80;73447.81;10434133;28;20216;-69
2023/10/06 11:06:58;;;;;;;4.38;2.40;;;;;;;-145.68;47.15;73535.78;10422789;28;20238;-68
2023/10/06 11:12:00;;;;;;;5.10;2.40;;;;;;;-145.68;47.00;73453.81;10417290;28;20609;-68
2023/10/06 11:17:05;;;;;;;4.85;2.58;;;;;;;-145.68;47.07;73511.78;10414454;28;20381;-68
2023/10/06 11:22:13;;;;;;;5.90;2.75;;;;;;;-145.68;47.61;73491.81;10428887;28;20265;-68
2023/10/06 11:27:23;;;;;;;5.30;2.83;;;;;;;-145.68;48.50;73519.78;10428099;28;20244;-67
2023/10/06 11:32:24;;;;;;;8.13;2.88;;;;;;;-145.68;47.82;73527.78;10430692;28;20189;-68
2023/10/06 11:37:25;;;;;;;4.85;2.65;;;;;;;-145.68;48.27;73579.75;10431132;28;20265;-67
2023/10/06 11:42:25;;;;;;;7.18;3.47;;;;;;;-145.68;48.73;73569.75;10434750;28;20274;-68
2023/10/06 11:47:28;;;;;;;8.02;2.83;;;;;;;-145.68;48.01;73541.78;10434331;28;21048;-68
2023/10/06 11:52:29;;;;;;;5.60;2.85;;;;;;;-145.68;47.55;73499.78;10435183;28;20185;-67
2023/10/06 11:57:46;;;;;;;4.50;2.85;;;;;;;-145.68;46.52;73511.78;10441188;28;20736;-68
2023/10/06 12:02:49;;;;;;;6.72;3.53;;;;;;;-145.68;46.17;73421.84;10444339;28;20219;-69
2023/10/06 12:07:50;;;;;;;8.48;3.88;;;;;;;-145.68;46.51;73501.78;10446119;28;20215;-69
2023/10/06 12:12:51;;;;;;;7.20;3.70;;;;;;;-145.68;45.66;73431.84;10442650;28;20553;-68
2023/10/06 12:17:52;;;;;;;8.13;4.32;;;;;;;-145.68;45.59;73499.78;10443261;28;20304;-68
2023/10/06 12:22:53;;;;;;;7.38;3.90;;;;;;;-145.68;45.48;73467.81;10442685;28;20268;-68
2023/10/06 12:27:56;;;;;;;10.32;4.00;;;;;;;-145.68;44.98;73439.84;10441490;28;20243;-68
2023/10/06 12:32:58;;;;;;;7.95;4.10;;;;;;;-145.68;44.20;73367.88;10437764;28;20330;-68
2023/10/06 12:37:58;;;;;;;10.15;4.43;;;;;;;-145.68;43.76;73391.84;10444206;28;20220;-68
2023/10/06 12:42:59;;;;;;;6.32;3.85;;;;;;;-145.68;44.83;73415.84;10442154;28;20330;-68
2023/10/06 12:48:04;;;;;;;8.40;4.25;;;;;;;-145.68;41.56;73203.97;10440835;28;20219;-69
2023/10/06 12:53:05;;;;;;;9.07;4.10;;;;;;;-145.68;42.37;73405.84;10441905;28;20669;-69
2023/10/06 12:58:06;;;;;;;9.50;4.10;;;;;;;-145.68;42.63;73339.91;10441426;28;20212;-68
2023/10/06 13:03:15;;;;;;;10.70;3.60;;;;;;;-145.68;41.64;73285.94;10439739;28;20226;-69
2023/10/06 13:08:24;;;;;;;6.65;3.45;;;;;;;-145.68;40.20;73194.00;10435541;28;20773;-69
2023/10/06 13:13:24;;;;;;;5.63;3.20;;;;;;;-145.68;41.76;73225.97;10441306;28;20184;-68
2023/10/06 13:18:25;;;;;;;6.10;3.63;;;;;;;-145.68;42.20;73311.91;10440672;28;20224;-69
2023/10/06 13:23:27;;;;;;;7.35;3.58;;;;;;;-145.68;43.25;73313.91;10436909;28;20216;-69
2023/10/06 13:28:28;;;;;;;7.97;3.13;;;;;;;-145.68;45.17;73389.88;10438636;28;20698;-67
2023/10/06 13:33:29;;;;;;;6.82;3.40;;;;;;;-145.68;44.69;73461.81;10417193;28;20189;-68
2023/10/06 13:38:31;;;;;;;6.57;3.15;;;;;;;-145.68;43.86;73267.94;10428104;28;20212;-67
2023/10/06 13:43:31;;;;;;;5.97;3.30;;;;;;;-145.68;44.41;73429.84;10427832;28;20293;-68
2023/10/06 13:48:31;;;;;;;8.20;4.25;;;;;;;-145.68;45.63;73559.75;10437966;28;20334;-67
2023/10/06 13:53:32;;;;;;;6.35;3.42;;;;;;;-145.68;45.78;73499.78;10439694;28;20337;-66
2023/10/06 13:58:32;;;;;;;6.35;3.60;;;;;;;-145.68;45.17;73469.81;10438832;28;20215;-67
2023/10/06 14:03:33;;;;;;;6.70;3.92;;;;;;;-145.68;44.41;73389.88;10437419;28;20345;-67
2023/10/06 14:08:33;;;;;;;6.30;3.58;;;;;;;-145.68;44.77;73457.81;10433514;28;20207;-67
2023/10/06 14:13:34;;;;;;;10.93;4.07;;;;;;;-145.68;45.71;73545.78;10436806;28;20288;-67
2023/10/06 14:18:36;;;;;;;7.65;4.20;;;;;;;-145.68;45.25;73475.81;10437358;28;20215;-67
2023/10/06 14:23:43;;;;;;;8.00;3.47;;;;;;;-145.68;45.83;73497.78;10431565;28;20756;-68
2023/10/06 14:28:44;;;;;;;7.30;3.88;;;;;;;-145.68;44.98;73377.88;10428977;28;20662;-68
2023/10/06 14:33:47;;;;;;;7.78;3.83;;;;;;;-145.68;45.56;73471.81;10429269;28;20237;-67
2023/10/06 14:49:12;;;;;;;7.40;3.75;;;;;;;-145.68;44.57;73411.84;10437114;28;20510;-68
2023/10/06 14:54:13;;;;;;;9.75;4.40;;;;;;;-145.68;44.54;73403.84;10428447;28;20576;-68
2023/10/06 14:59:13;;;;;;;8.70;3.70;;;;;;;-145.68;44.48;73411.84;10436285;28;20236;-69
2023/10/06 15:04:14;;;;;;;10.23;4.35;;;;;;;-145.68;43.82;73351.88;10436297;28;20219;-68
2023/10/06 15:09:17;;;;;;;8.27;3.67;;;;;;;-145.68;41.84;73158.00;10435887;28;20342;-69
2023/10/06 15:14:23;;;;;;;7.47;4.38;;;;;;;-145.68;40.90;73066.09;10431635;28;20196;-69
2023/10/06 15:19:24;;;;;;;7.72;3.90;;;;;;;-145.68;43.56;73297.91;10432671;28;20304;-68
2023/10/06 15:24:25;;;;;;;8.57;3.95;;;;;;;-145.68;43.66;73251.94;10435578;28;20212;-69
2023/10/06 15:29:27;;;;;;;5.63;3.42;;;;;;;-145.68;46.55;73481.81;10433644;28;20229;-68
2023/10/06 15:34:28;;;;;;;8.13;3.63;;;;;;;-145.68;46.84;73463.81;10431407;28;20189;-68
2023/10/06 15:39:31;;;;;;;11.68;4.13;;;;;;;-145.68;47.30;73487.81;10435661;28;20208;-68
2023/10/06 15:44:32;;;;;;;8.43;3.97;;;;;;;-145.68;48.37;73551.75;10430094;28;20216;-69
2023/10/06 15:49:32;;;;;;;9.63;5.60;;;;;;;-145.68;49.46;73581.75;10431888;28;20219;-69
2023/10/06 15:54:33;;;;;;;7.75;4.10;;;;;;;-145.68;50.87;73619.72;10434714;28;20192;-68
2023/10/06 15:59:37;;;;;;;8.85;6.50;;;;;;;-145.68;51.18;73663.69;10434118;28;20212;-68
2023/10/06 16:04:39;;;;;;;10.60;4.00;;;;;;;-145.68;52.05;73667.69;10428220;28;20310;-68
2023/10/06 16:09:39;;;;;;;10.80;4.13;;;;;;;-145.68;53.59;73727.66;10421500;28;20211;-68
2023/10/06 16:14:39;;;;;;;7.32;3.75;;;;;;;-145.68;53.53;73723.66;10420575;28;20208;-68
2023/10/06 16:19:40;;;;;;;8.57;4.93;;;;;;;-145.68;53.75;73735.66;10427661;28;20269;-68
2023/10/06 16:24:41;;;;;;;8.50;4.60;;;;;;;-145.68;55.04;73769.63;10435526;28;20303;-68
2023/10/06 16:29:41;;;;;;;10.32;4.20;;;;;;;-145.68;55.25;73769.63;10433911;28;20250;-68
2023/10/06 16:34:42;;;;;;;7.20;3.83;;;;;;;-145.68;55.76;73775.63;10435508;28;20274;-68
2023/10/06 16:39:43;;;;;;;9.93;3.47;;;;;;;-145.68;56.27;73787.63;10434988;28;20752;-68
2023/10/06 16:44:44;;;;;;;5.68;4.18;;;;;;;-145.68;55.72;73777.63;10441606;28;20630;-68
2023/10/06 16:49:44;;;;;;;10.77;5.05;;;;;;;-145.68;56.26;73795.63;10442470;28;20265;-68
2023/10/06 16:54:45;;;;;;;9.18;3.80;;;;;;;-145.68;56.25;73805.63;10440210;28;20731;-68
2023/10/06 16:59:46;;;;;;;5.57;3.03;;;;;;;-145.68;55.49;73783.63;10442246;28;20601;-68
2023/10/06 17:04:47;;;;;;;4.57;2.67;;;;;;;-145.68;55.47;73781.63;10440533;28;20231;-68
2023/10/06 17:09:48;;;;;;;6.85;3.33;;;;;;;-145.68;55.09;73769.63;10439831;28;20224;-68
2023/10/06 17:14:52;;;;;;;7.20;3.95;;;;;;;-145.68;54.94;73789.63;10441044;28;20261;-68
2023/10/06 17:19:53;;;;;;;7.20;3.30;;;;;;;-145.68;55.26;73799.63;10440354;28;20216;-69
2023/10/06 17:24:53;;;;;;;13.57;6.45;;;;;;;-145.68;55.02;73807.63;10441382;28;20231;-68
2023/10/06 17:29:57;;;;;;;5.15;3.25;;;;;;;-145.68;55.16;73817.63;10440226;28;20611;-69
2023/10/06 17:34:58;;;;;;;5.30;3.28;;;;;;;-145.68;55.18;73819.63;10441038;28;20219;-68
2023/10/06 17:39:58;;;;;;;5.13;2.90;;;;;;;-145.68;55.04;73811.63;10440754;28;20303;-68
2023/10/06 17:45:02;;;;;;;5.55;3.08;;;;;;;-145.68;55.06;73799.63;10440440;28;20223;-68
2023/10/06 17:50:03;;;;;;;5.65;3.08;;;;;;;-145.68;55.17;73793.63;10440113;28;20697;-68
2023/10/06 17:55:10;;;;;;;6.43;2.75;;;;;;;-145.68;54.62;73779.63;10439010;28;20199;-68
2023/10/06 18:00:11;;;;;;;4.97;2.65;;;;;;;-145.68;54.43;73773.63;10439209;28;20221;-69
2023/10/06 18:05:16;;;;;;;7.45;3.15;;;;;;;-145.68;54.30;73781.63;10432446;28;20225;-68
2023/10/06 18:10:16;;;;;;;5.88;3.33;;;;;;;-145.68;54.06;73769.63;10438907;28;20212;-67
2023/10/06 18:15:18;;;;;;;7.25;3.45;;;;;;;-145.68;54.56;73791.63;10438938;28;20195;-69
2023/10/06 18:20:18;;;;;;;6.93;3.50;;;;;;;-145.68;54.54;73799.63;10436561;28;20208;-69
2023/10/06 18:25:19;;;;;;;10.35;4.35;;;;;;;-145.68;53.98;73793.63;10438493;28;20226;-69
2023/10/06 18:30:19;;;;;;;7.30;3.80;;;;;;;-145.68;53.61;73797.63;10437449;28;20314;-69
2023/10/06 18:35:20;;;;;;;6.63;4.35;;;;;;;-145.68;52.89;73781.63;10437504;28;20192;-69
2023/10/06 18:40:22;;;;;;;8.43;4.25;;;;;;;-145.68;52.39;73783.63;10437421;28;20204;-69
2023/10/06 18:45:22;;;;;;;8.35;4.25;;;;;;;-145.68;51.44;73783.63;10437566;28;20212;-69
2023/10/06 18:50:23;;;;;;;6.93;4.35;;;;;;;-145.68;51.16;73787.63;10437393;28;20601;-69
2023/10/06 18:55:23;;;;;;;10.70;4.35;;;;;;;-145.68;50.37;73781.63;10436796;28;20184;-69
2023/10/06 19:00:26;;;;;;;6.70;3.97;;;;;;;-145.68;50.43;73789.63;10431676;28;20212;-69
2023/10/06 19:05:26;;;;;;;6.13;3.47;;;;;;;-145.68;50.98;73821.63;10435282;28;20307;-69
2023/10/06 19:10:26;;;;;;;10.23;3.80;;;;;;;-145.68;49.89;73791.63;10436217;28;20698;-69
2023/10/06 19:15:27;;;;;;;7.15;3.50;;;;;;;-145.68;49.55;73805.63;10436926;28;20267;-69
2023/10/06 19:20:27;;;;;;;6.00;3.42;;;;;;;-145.68;49.30;73795.63;10435750;28;20215;-69
2023/10/06 19:25:28;;;;;;;6.32;3.22;;;;;;;-145.68;48.99;73793.63;10435104;28;20224;-69
2023/10/06 19:30:29;;;;;;;5.43;3.25;;;;;;;-145.68;49.00;73781.63;10435226;28;20243;-68
2023/10/06 19:35:29;;;;;;;4.55;3.00;;;;;;;-145.68;49.07;73791.63;10435477;28;20185;-69
2023/10/06 19:40:30;;;;;;;7.68;3.03;;;;;;;-145.68;48.85;73801.63;10435967;28;20223;-69
2023/10/06 19:45:30;;;;;;;9.27;4.10;;;;;;;-145.68;48.80;73803.63;10435930;28;20242;-69
2023/10/06 19:50:30;;;;;;;7.85;3.47;;;;;;;-145.68;48.63;73803.63;10424989;28;20341;-68
2023/10/06 19:55:31;;;;;;;7.68;3.10;;;;;;;-145.68;48.70;73811.63;10417848;28;20196;-69
2023/10/06 20:00:31;;;;;;;9.27;3.35;;;;;;;-145.68;48.83;73807.63;10417140;28;20215;-68
2023/10/06 20:05:34;;;;;;;6.38;3.33;;;;;;;-145.68;49.00;73811.63;10429160;28;20215;-69
2023/10/06 20:10:35;;;;;;;5.90;3.53;;;;;;;-145.68;48.84;73803.63;10432900;28;20298;-68
2023/10/06 20:15:36;;;;;;;7.18;3.67;;;;;;;-145.68;49.05;73815.63;10433390;28;20244;-68
2023/10/06 20:20:36;;;;;;;6.05;3.38;;;;;;;-145.68;49.32;73819.63;10442315;28;20222;-69
2023/10/06 20:25:37;;;;;;;9.25;3.40;;;;;;;-145.68;49.76;73829.59;10442927;28;20276;-69
2023/10/06 20:30:40;;;;;;;8.60;3.42;;;;;;;-145.68;49.39;73823.63;10442691;28;20238;-69
2023/10/06 20:35:41;;;;;;;5.45;3.03;;;;;;;-145.68;49.92;73839.59;10442737;28;20215;-69
2023/10/06 20:40:44;;;;;;;6.32;3.53;;;;;;;-145.68;50.58;73875.59;10440274;28;20704;-68
2023/10/06 20:45:44;;;;;;;7.18;3.50;;;;;;;-145.68;50.67;73875.59;10442298;28;20219;-69
2023/10/06 20:50:45;;;;;;;6.93;2.97;;;;;;;-145.68;50.83;73883.59;10442517;28;20218;-69
2023/10/06 20:55:46;;;;;;;10.13;4.85;;;;;;;-145.68;50.82;73869.59;10442547;28;20249;-68
2023/10/06 21:00:46;;;;;;;6.63;3.33;;;;;;;-145.68;50.93;73875.59;10441815;28;20270;-68
2023/10/06 21:05:48;;;;;;;7.60;4.00;;;;;;;-145.68;51.26;73873.59;10441431;28;20290;-69
2023/10/06 21:10:49;;;;;;;7.88;3.58;;;;;;;-145.68;51.71;73885.56;10441591;28;20712;-69
2023/10/06 21:15:49;;;;;;;9.43;4.13;;;;;;;-145.68;51.47;73885.56;10441763;28;20302;-68
2023/10/06 21:20:49;;;;;;;8.48;3.80;;;;;;;-145.68;51.34;73883.59;10434271;28;20273;-68
2023/10/06 21:25:51;;;;;;;8.05;3.90;;;;;;;-145.68;51.62;73871.59;10440062;28;20282;-69
2023/10/06 21:30:51;;;;;;;7.57;3.58;;;;;;;-145.68;51.29;73865.59;10436395;28;20318;-68
2023/10/06 21:35:51;;;;;;;9.45;4.28;;;;;;;-145.68;51.58;73871.59;10438212;28;20281;-69
2023/10/06 21:40:59;;;;;;;6.60;3.60;;;;;;;-145.68;51.27;73861.59;10434853;28;20224;-68
2023/10/06 21:46:00;;;;;;;7.75;3.33;;;;;;;-145.68;51.26;73851.59;10431803;28;20200;-69
2023/10/06 21:51:00;;;;;;;9.75;3.80;;;;;;;-145.68;51.44;73869.59;10435778;28;20218;-69
2023/10/06 21:56:11;;;;;;;7.97;3.92;;;;;;;-145.68;51.82;73869.59;10440443;28;20196;-68
2023/10/06 22:01:19;;;;;;;7.82;3.90;;;;;;;-145.68;52.04;73871.59;10435908;28;20213;-68
2023/10/06 22:06:22;;;;;;;7.70;3.50;;;;;;;-145.68;52.27;73873.59;10439460;28;20280;-68
2023/10/06 22:11:24;;;;;;;9.23;3.58;;;;;;;-145.68;52.69;73877.59;10439204;28;20184;-68
2023/10/06 22:16:27;;;;;;;9.88;4.15;;;;;;;-145.68;53.31;73877.59;10439325;28;20207;-68
2023/10/06 22:21:27;;;;;;;7.35;3.78;;;;;;;-145.68;53.41;73871.59;10438759;28;20642;-69
2023/10/06 22:26:29;;;;;;;8.20;3.78;;;;;;;-145.68;53.66;73869.59;10435983;28;20283;-68
2023/10/06 22:31:31;;;;;;;5.80;3.05;;;;;;;-145.68;54.25;73867.59;10438520;28;20185;-68
2023/10/06 22:36:32;;;;;;;7.00;4.13;;;;;;;-145.68;54.68;73871.59;10438619;28;20230;-69
2023/10/06 22:41:32;;;;;;;7.28;3.75;;;;;;;-145.68;55.13;73847.59;10437260;28;20272;-68
2023/10/06 22:46:33;;;;;;;7.07;3.40;;;;;;;-145.68;55.36;73841.59;10438039;28;20718;-68
2023/10/06 22:51:33;;;;;;;9.52;3.63;;;;;;;-145.68;55.67;73827.59;10438213;28;20845;-68
2023/10/06 22:56:34;;;;;;;7.80;3.13;;;;;;;-145.68;56.01;73819.63;10434951;28;20216;-68